Mercini Lady — A8DL4 — position and weather

sailwx.info

Track history (hours):
 
Tides and Currents Weather Stations Pressure Air Temp Water Temp Dewpoint Dewpoint Depression Visibility Wind Speed Wind Dir Waves Ship Positions

Mercini Lady

Last reported at 2016-Jan-27 07:28 UTC. Time now 2016-Feb-08 22:52 UTC.
Position N 35°46' E 015°27'.
Warning: this ship's position is 12 days out of date.

Length 182 m; draft 10.9 m.

Type: Tanker. MMSI: 636012102.

Date/timePositionNaut miles runAvg speedWind from/ knotsBaromVisibWave heightAir tempDewpointWater temp
2016-Jan-27 07:28N 35°46' E 015°27'1111.0
2016-Jan-27 06:27N 35°49' E 015°14'1010.7
2016-Jan-27 05:32N 35°52' E 015°02'1010.1
2016-Jan-27 04:31N 35°54' E 014°50'1 1.0
2016-Jan-27 03:15N 35°53' E 014°48'0 0.0
2016-Jan-27 02:22N 35°53' E 014°48'0 0.0
2016-Jan-27 01:29N 35°53' E 014°48'0 0.0
2016-Jan-27 00:29N 35°53' E 014°48'0 0.0
2016-Jan-26 23:30N 35°53' E 014°48'0 0.0
2016-Jan-26 22:31N 35°53' E 014°48'0 0.0
2016-Jan-26 21:22N 35°53' E 014°48'0 0.2
2016-Jan-26 20:33N 35°54' E 014°48'5 5.0
2016-Jan-26 19:33N 35°57' E 014°44'1110.6
2016-Jan-26 18:33N 36°03' E 014°33'1110.7
2016-Jan-26 17:33N 36°09' E 014°22'1110.7
2016-Jan-26 16:33N 36°13' E 014°10'1111.2
2016-Jan-26 15:33N 36°18' E 013°57'1111.3
2016-Jan-26 14:33N 36°23' E 013°45'1111.1
2016-Jan-26 13:33N 36°28' E 013°32'1211.8
2016-Jan-26 12:32N 36°33' E 013°19'1311.7
2016-Jan-26 11:24N 36°39' E 013°04'22310.7
2016-Jan-25 14:32N 38°51' E 009°18'1110.7
2016-Jan-25 13:33N 39°00' E 009°10'8 7.8
2016-Jan-25 12:33N 39°06' E 009°04'1 0.6
2016-Jan-25 11:33N 39°06' E 009°03'1 0.9
2016-Jan-25 10:33N 39°05' E 009°02'0 0.1
2016-Jan-25 09:31N 39°05' E 009°02'0 0.0
2016-Jan-25 08:32N 39°05' E 009°02'0 0.0
2016-Jan-25 07:32N 39°05' E 009°02'0 0.0
2016-Jan-25 06:33N 39°05' E 009°02'0 0.0
2016-Jan-25 05:31N 39°05' E 009°02'0 0.0
2016-Jan-25 04:32N 39°05' E 009°02'0 0.0
2016-Jan-25 03:32N 39°05' E 009°02'0 0.0
2016-Jan-25 02:33N 39°05' E 009°02'0 0.0
2016-Jan-25 01:34N 39°05' E 009°02'0 0.0
2016-Jan-25 00:31N 39°05' E 009°02'0 0.0
2016-Jan-24 23:32N 39°05' E 009°02'0 0.0
2016-Jan-24 22:33N 39°05' E 009°02'0 0.0
2016-Jan-24 21:33N 39°05' E 009°02'0 0.0
2016-Jan-24 20:31N 39°05' E 009°02'0 0.0
2016-Jan-24 19:32N 39°05' E 009°02'0 0.0
2016-Jan-24 18:32N 39°05' E 009°02'0 0.0
2016-Jan-24 17:33N 39°05' E 009°02'0 0.0
2016-Jan-24 16:34N 39°05' E 009°02'0 0.0
2016-Jan-24 15:31N 39°05' E 009°02'0 0.0
2016-Jan-24 14:32N 39°05' E 009°02'0 0.0
2016-Jan-24 13:33N 39°05' E 009°02'0 0.0
2016-Jan-24 12:33N 39°05' E 009°02'0 0.0
2016-Jan-24 11:31N 39°05' E 009°02'0 0.0
2016-Jan-24 10:32N 39°05' E 009°02'0 0.0
2016-Jan-24 09:32N 39°05' E 009°02'0 0.0
2016-Jan-24 08:33N 39°05' E 009°02'0 0.0
2016-Jan-24 07:31N 39°05' E 009°02'0 0.0
2016-Jan-24 06:31N 39°05' E 009°02'0 0.0
2016-Jan-24 05:32N 39°05' E 009°02'0 0.0
2016-Jan-24 04:33N 39°05' E 009°02'0 0.0
2016-Jan-24 03:33N 39°05' E 009°02'0 0.0
2016-Jan-24 02:31N 39°05' E 009°02'0 0.0
2016-Jan-24 01:32N 39°05' E 009°02'0 0.0
2016-Jan-24 00:32N 39°05' E 009°02'0 0.0
2016-Jan-23 23:33N 39°05' E 009°02'0 0.0
2016-Jan-23 22:31N 39°05' E 009°02'0 0.0
2016-Jan-23 21:31N 39°05' E 009°02'0 0.0
2016-Jan-23 20:32N 39°05' E 009°02'0 0.0
2016-Jan-23 19:33N 39°05' E 009°02'0 0.0
2016-Jan-23 18:33N 39°05' E 009°02'0 0.0
2016-Jan-23 17:31N 39°05' E 009°02'0 0.0
2016-Jan-23 16:32N 39°05' E 009°02'0 0.0
2016-Jan-23 15:32N 39°05' E 009°02'0 0.0
2016-Jan-23 14:33N 39°05' E 009°02'0 0.0
2016-Jan-23 13:31N 39°05' E 009°02'1 0.7
2016-Jan-23 12:33N 39°05' E 009°03'2 1.9
2016-Jan-23 11:33N 39°04' E 009°04'0 0.0
2016-Jan-23 10:33N 39°04' E 009°04'0 0.0
2016-Jan-23 09:31N 39°04' E 009°04'0 0.0
2016-Jan-23 08:32N 39°04' E 009°04'0 0.0
2016-Jan-23 07:32N 39°04' E 009°04'0 0.0
2016-Jan-23 06:33N 39°04' E 009°04'0 0.0
2016-Jan-23 05:31N 39°04' E 009°04'0 0.0
2016-Jan-23 04:31N 39°04' E 009°04'0 0.0
2016-Jan-23 03:32N 39°04' E 009°04'0 0.0
2016-Jan-23 02:33N 39°04' E 009°04'0 0.0
2016-Jan-23 01:33N 39°04' E 009°04'0 0.0
2016-Jan-23 00:31N 39°04' E 009°04'0 0.0
2016-Jan-22 23:32N 39°04' E 009°04'0 0.0
2016-Jan-22 22:32N 39°04' E 009°04'0 0.0
2016-Jan-22 21:33N 39°04' E 009°04'0 0.0
2016-Jan-22 20:31N 39°04' E 009°04'0 0.0
2016-Jan-22 19:31N 39°04' E 009°04'0 0.0
2016-Jan-22 18:32N 39°04' E 009°04'0 0.0
2016-Jan-22 17:33N 39°04' E 009°04'0 0.0
2016-Jan-22 16:33N 39°04' E 009°04'0 0.2
2016-Jan-22 15:31N 39°04' E 009°04'0 0.0
2016-Jan-22 14:32N 39°04' E 009°04'0 0.1
2016-Jan-22 13:30N 39°04' E 009°04'0 0.0
2016-Jan-22 12:33N 39°04' E 009°04'0 0.1
2016-Jan-22 11:33N 39°04' E 009°04'6 5.5
2016-Jan-22 10:33N 38°59' E 009°08'1010.2
2016-Jan-22 09:33N 38°50' E 009°15'1111.1
2016-Jan-22 08:32N 38°40' E 009°22'242 9.3
2016-Jan-21 06:33N 36°34' E 013°43'1212.1
2016-Jan-21 05:33N 36°30' E 013°57'1212.4
2016-Jan-21 04:33N 36°26' E 014°11'1212.4
2016-Jan-21 03:33N 36°21' E 014°26'1312.4
2016-Jan-21 02:31N 36°17' E 014°41'  
Track history (hours):
 
Tides and Currents Weather Stations Pressure Air Temp Water Temp Dewpoint Dewpoint Depression Visibility Wind Speed Wind Dir Waves Ship Positions

Mercini Lady

Last reported at 2016-Jan-27 07:28 UTC. Time now 2016-Feb-08 22:52 UTC.
Position N 35°46' E 015°27'.
Warning: this ship's position is 12 days out of date.

Length 182 m; draft 10.9 m.

Type: Tanker. MMSI: 636012102.

Date/timePositionNaut miles runAvg speedWind from/ knotsBaromVisibWave heightAir tempDewpointWater temp
2016-Jan-27 07:28N 35°46' E 015°27'1111.0
2016-Jan-27 06:27N 35°49' E 015°14'1010.7
2016-Jan-27 05:32N 35°52' E 015°02'1010.1
2016-Jan-27 04:31N 35°54' E 014°50'1 1.0
2016-Jan-27 03:15N 35°53' E 014°48'0 0.0
2016-Jan-27 02:22N 35°53' E 014°48'0 0.0
2016-Jan-27 01:29N 35°53' E 014°48'0 0.0
2016-Jan-27 00:29N 35°53' E 014°48'0 0.0
2016-Jan-26 23:30N 35°53' E 014°48'0 0.0
2016-Jan-26 22:31N 35°53' E 014°48'0 0.0
2016-Jan-26 21:22N 35°53' E 014°48'0 0.2
2016-Jan-26 20:33N 35°54' E 014°48'5 5.0
2016-Jan-26 19:33N 35°57' E 014°44'1110.6
2016-Jan-26 18:33N 36°03' E 014°33'1110.7
2016-Jan-26 17:33N 36°09' E 014°22'1110.7
2016-Jan-26 16:33N 36°13' E 014°10'1111.2
2016-Jan-26 15:33N 36°18' E 013°57'1111.3
2016-Jan-26 14:33N 36°23' E 013°45'1111.1
2016-Jan-26 13:33N 36°28' E 013°32'1211.8
2016-Jan-26 12:32N 36°33' E 013°19'1311.7
2016-Jan-26 11:24N 36°39' E 013°04'22310.7
2016-Jan-25 14:32N 38°51' E 009°18'1110.7
2016-Jan-25 13:33N 39°00' E 009°10'8 7.8
2016-Jan-25 12:33N 39°06' E 009°04'1 0.6
2016-Jan-25 11:33N 39°06' E 009°03'1 0.9
2016-Jan-25 10:33N 39°05' E 009°02'0 0.1
2016-Jan-25 09:31N 39°05' E 009°02'0 0.0
2016-Jan-25 08:32N 39°05' E 009°02'0 0.0
2016-Jan-25 07:32N 39°05' E 009°02'0 0.0
2016-Jan-25 06:33N 39°05' E 009°02'0 0.0
2016-Jan-25 05:31N 39°05' E 009°02'0 0.0
2016-Jan-25 04:32N 39°05' E 009°02'0 0.0
2016-Jan-25 03:32N 39°05' E 009°02'0 0.0
2016-Jan-25 02:33N 39°05' E 009°02'0 0.0
2016-Jan-25 01:34N 39°05' E 009°02'0 0.0
2016-Jan-25 00:31N 39°05' E 009°02'0 0.0
2016-Jan-24 23:32N 39°05' E 009°02'0 0.0
2016-Jan-24 22:33N 39°05' E 009°02'0 0.0
2016-Jan-24 21:33N 39°05' E 009°02'0 0.0
2016-Jan-24 20:31N 39°05' E 009°02'0 0.0
2016-Jan-24 19:32N 39°05' E 009°02'0 0.0
2016-Jan-24 18:32N 39°05' E 009°02'0 0.0
2016-Jan-24 17:33N 39°05' E 009°02'0 0.0
2016-Jan-24 16:34N 39°05' E 009°02'0 0.0
2016-Jan-24 15:31N 39°05' E 009°02'0 0.0
2016-Jan-24 14:32N 39°05' E 009°02'0 0.0
2016-Jan-24 13:33N 39°05' E 009°02'0 0.0
2016-Jan-24 12:33N 39°05' E 009°02'0 0.0
2016-Jan-24 11:31N 39°05' E 009°02'0 0.0
2016-Jan-24 10:32N 39°05' E 009°02'0 0.0
2016-Jan-24 09:32N 39°05' E 009°02'0 0.0
2016-Jan-24 08:33N 39°05' E 009°02'0 0.0
2016-Jan-24 07:31N 39°05' E 009°02'0 0.0
2016-Jan-24 06:31N 39°05' E 009°02'0 0.0
2016-Jan-24 05:32N 39°05' E 009°02'0 0.0
2016-Jan-24 04:33N 39°05' E 009°02'0 0.0
2016-Jan-24 03:33N 39°05' E 009°02'0 0.0
2016-Jan-24 02:31N 39°05' E 009°02'0 0.0
2016-Jan-24 01:32N 39°05' E 009°02'0 0.0
2016-Jan-24 00:32N 39°05' E 009°02'0 0.0
2016-Jan-23 23:33N 39°05' E 009°02'0 0.0
2016-Jan-23 22:31N 39°05' E 009°02'0 0.0
2016-Jan-23 21:31N 39°05' E 009°02'0 0.0
2016-Jan-23 20:32N 39°05' E 009°02'0 0.0
2016-Jan-23 19:33N 39°05' E 009°02'0 0.0
2016-Jan-23 18:33N 39°05' E 009°02'0 0.0
2016-Jan-23 17:31N 39°05' E 009°02'0 0.0
2016-Jan-23 16:32N 39°05' E 009°02'0 0.0
2016-Jan-23 15:32N 39°05' E 009°02'0 0.0
2016-Jan-23 14:33N 39°05' E 009°02'0 0.0
2016-Jan-23 13:31N 39°05' E 009°02'1 0.7
2016-Jan-23 12:33N 39°05' E 009°03'2 1.9
2016-Jan-23 11:33N 39°04' E 009°04'0 0.0
2016-Jan-23 10:33N 39°04' E 009°04'0 0.0
2016-Jan-23 09:31N 39°04' E 009°04'0 0.0
2016-Jan-23 08:32N 39°04' E 009°04'0 0.0
2016-Jan-23 07:32N 39°04' E 009°04'0 0.0
2016-Jan-23 06:33N 39°04' E 009°04'0 0.0
2016-Jan-23 05:31N 39°04' E 009°04'0 0.0
2016-Jan-23 04:31N 39°04' E 009°04'0 0.0
2016-Jan-23 03:32N 39°04' E 009°04'0 0.0
2016-Jan-23 02:33N 39°04' E 009°04'0 0.0
2016-Jan-23 01:33N 39°04' E 009°04'0 0.0
2016-Jan-23 00:31N 39°04' E 009°04'0 0.0
2016-Jan-22 23:32N 39°04' E 009°04'0 0.0
2016-Jan-22 22:32N 39°04' E 009°04'0 0.0
2016-Jan-22 21:33N 39°04' E 009°04'0 0.0
2016-Jan-22 20:31N 39°04' E 009°04'0 0.0
2016-Jan-22 19:31N 39°04' E 009°04'0 0.0
2016-Jan-22 18:32N 39°04' E 009°04'0 0.0
2016-Jan-22 17:33N 39°04' E 009°04'0 0.0
2016-Jan-22 16:33N 39°04' E 009°04'0 0.2
2016-Jan-22 15:31N 39°04' E 009°04'0 0.0
2016-Jan-22 14:32N 39°04' E 009°04'0 0.1
2016-Jan-22 13:30N 39°04' E 009°04'0 0.0
2016-Jan-22 12:33N 39°04' E 009°04'0 0.1
2016-Jan-22 11:33N 39°04' E 009°04'6 5.5
2016-Jan-22 10:33N 38°59' E 009°08'1010.2
2016-Jan-22 09:33N 38°50' E 009°15'1111.1
2016-Jan-22 08:32N 38°40' E 009°22'242 9.3
2016-Jan-21 06:33N 36°34' E 013°43'1212.1
2016-Jan-21 05:33N 36°30' E 013°57'1212.4
2016-Jan-21 04:33N 36°26' E 014°11'1212.4
2016-Jan-21 03:33N 36°21' E 014°26'1312.4
2016-Jan-21 02:31N 36°17' E 014°41'  

Dump ship's entire track history